Time;durP1;ratioP1;P1;durP2;ratioP2;P2;SDS_P1;SDS_P2;PMS_P1;PMS_P2;Temp;Humidity;BMP_temperature;BMP_pressure;BME280_temperature;BME280_humidity;BME280_pressure;Samples;Min_cycle;Max_cycle;Signal;HPM_P1;HPM_P2
2021/01/08 00:01:19;;;;;;;29.75;16.65;;;0.90;99.90;;;;;;5034828;28;20025;-74
2021/01/08 00:03:45;;;;;;;30.70;16.05;;;0.90;99.90;;;;;;5034601;28;20033;-74
2021/01/08 00:06:10;;;;;;;28.58;15.90;;;0.90;99.90;;;;;;5033447;28;20021;-74
2021/01/08 00:08:36;;;;;;;29.13;16.77;;;0.90;99.90;;;;;;5033410;28;20026;-74
2021/01/08 00:11:02;;;;;;;29.30;16.33;;;0.90;99.90;;;;;;5014887;28;20498;-74
2021/01/08 00:13:27;;;;;;;27.08;16.13;;;0.90;99.90;;;;;;5013438;28;20103;-74
2021/01/08 00:15:53;;;;;;;32.42;17.80;;;0.90;99.90;;;;;;5014701;28;20034;-74
2021/01/08 00:18:19;;;;;;;31.45;17.65;;;0.90;99.90;;;;;;5014857;28;20029;-74
2021/01/08 00:20:44;;;;;;;33.92;17.08;;;0.90;99.90;;;;;;5030405;28;20454;-74
2021/01/08 00:23:10;;;;;;;32.65;17.50;;;0.90;99.90;;;;;;5034449;28;20025;-74
2021/01/08 00:25:35;;;;;;;32.40;17.65;;;0.90;99.90;;;;;;5034226;28;20028;-74
2021/01/08 00:28:01;;;;;;;34.05;18.33;;;0.90;99.90;;;;;;5034186;28;20037;-74
2021/01/08 00:30:26;;;;;;;33.88;18.95;;;0.90;99.90;;;;;;5015035;28;20026;-74
2021/01/08 00:32:53;;;;;;;35.65;17.63;;;0.90;99.90;;;;;;5013417;28;20036;-74
2021/01/08 00:35:18;;;;;;;30.75;16.52;;;1.00;99.90;;;;;;5014254;28;20040;-74
2021/01/08 00:37:44;;;;;;;39.83;20.52;;;1.00;99.90;;;;;;5014523;28;20034;-74
2021/01/08 00:40:10;;;;;;;34.90;19.13;;;0.90;99.90;;;;;;5028128;28;20045;-75
2021/01/08 00:42:36;;;;;;;36.50;19.33;;;1.00;99.90;;;;;;5033932;28;20029;-74
2021/01/08 00:45:03;;;;;;;41.53;21.60;;;0.90;99.90;;;;;;5033578;28;20036;-74
2021/01/08 00:47:28;;;;;;;34.42;19.50;;;1.00;99.90;;;;;;5034016;28;20092;-74
2021/01/08 00:49:54;;;;;;;41.63;20.80;;;1.00;99.90;;;;;;5032395;28;20052;-74
2021/01/08 00:52:19;;;;;;;36.72;21.27;;;1.00;99.90;;;;;;5034043;28;20498;-74
2021/01/08 00:54:48;;;;;;;42.00;20.15;;;1.00;99.90;;;;;;5032321;28;20120;-74
2021/01/08 00:57:14;;;;;;;43.65;23.15;;;1.00;99.90;;;;;;5033670;28;20446;-74
2021/01/08 00:59:39;;;;;;;44.55;22.50;;;1.00;99.90;;;;;;5020946;28;20120;-74
2021/01/08 01:02:05;;;;;;;52.53;22.98;;;1.10;99.90;;;;;;5013989;28;20026;-74
2021/01/08 01:04:30;;;;;;;44.00;23.38;;;1.00;99.90;;;;;;5013727;28;20034;-74
2021/01/08 01:06:56;;;;;;;43.13;21.83;;;1.00;99.90;;;;;;5013985;28;20030;-74
2021/01/08 01:09:21;;;;;;;43.95;22.70;;;1.00;99.90;;;;;;5028886;28;20481;-74
2021/01/08 01:11:47;;;;;;;46.00;22.83;;;1.00;99.90;;;;;;5053347;28;20032;-75
2021/01/08 01:14:12;;;;;;;47.83;23.40;;;1.00;99.90;;;;;;5052976;28;20063;-74
2021/01/08 01:16:38;;;;;;;43.20;21.25;;;1.00;99.90;;;;;;5053411;28;20037;-74
2021/01/08 01:19:04;;;;;;;47.53;23.02;;;1.10;99.90;;;;;;5050319;28;20378;-74
2021/01/08 01:21:29;;;;;;;45.40;22.77;;;1.10;99.90;;;;;;5033493;28;20032;-74
2021/01/08 01:23:55;;;;;;;51.08;23.23;;;1.00;99.90;;;;;;5033160;28;20359;-74
2021/01/08 01:26:21;;;;;;;47.92;23.10;;;1.00;99.90;;;;;;5033081;28;20045;-74
2021/01/08 01:28:47;;;;;;;50.45;23.67;;;1.10;99.90;;;;;;5027684;28;20586;-74
2021/01/08 01:31:12;;;;;;;46.72;22.88;;;1.00;99.90;;;;;;5013534;28;20036;-74
2021/01/08 01:33:38;;;;;;;45.50;22.88;;;1.00;99.90;;;;;;5012085;28;20026;-75
2021/01/08 01:36:09;;;;;;;47.30;23.20;;;1.10;99.90;;;;;;5013287;28;20024;-74
2021/01/08 01:38:36;;;;;;;43.97;22.02;;;1.00;99.90;;;;;;5013964;28;20103;-74
2021/01/08 01:41:03;;;;;;;46.83;23.77;;;1.10;99.90;;;;;;5032925;28;20489;-74
2021/01/08 01:43:29;;;;;;;45.22;23.35;;;1.10;99.90;;;;;;5032648;28;20168;-74
2021/01/08 01:45:55;;;;;;;46.13;23.58;;;1.10;99.90;;;;;;5032691;28;20533;-74
2021/01/08 01:48:21;;;;;;;51.33;22.95;;;1.10;99.90;;;;;;5031673;28;20025;-75
2021/01/08 01:50:47;;;;;;;45.58;22.45;;;1.00;99.90;;;;;;5031257;28;20048;-74
2021/01/08 01:53:13;;;;;;;49.53;23.13;;;1.10;99.90;;;;;;5032849;28;20032;-74
2021/01/08 01:55:39;;;;;;;37.80;19.95;;;1.10;99.90;;;;;;5032402;28;20041;-74
2021/01/08 01:58:05;;;;;;;52.47;22.42;;;1.10;99.90;;;;;;5032444;28;20478;-74
2021/01/08 02:00:31;;;;;;;51.95;23.48;;;1.10;99.90;;;;;;5032126;28;20076;-74
2021/01/08 02:03:17;;;;;;;49.22;23.77;;;1.10;99.90;;;;;;5032617;28;20032;-74
2021/01/08 02:05:47;;;;;;;48.40;23.55;;;1.10;99.90;;;;;;5032386;28;20120;-74
2021/01/08 02:08:21;;;;;;;45.63;22.67;;;1.10;99.90;;;;;;5031175;28;20026;-74
2021/01/08 02:11:00;;;;;;;44.85;23.45;;;1.10;99.90;;;;;;5031809;28;20029;-74
2021/01/08 02:13:44;;;;;;;47.25;22.30;;;1.10;99.90;;;;;;5031055;28;20049;-74
2021/01/08 02:16:12;;;;;;;51.55;22.55;;;1.10;99.90;;;;;;5031189;28;20028;-74
2021/01/08 02:18:39;;;;;;;57.45;23.48;;;1.10;99.90;;;;;;5032464;28;20029;-74
2021/01/08 02:21:11;;;;;;;57.70;23.15;;;1.10;99.90;;;;;;5013806;28;20092;-75
2021/01/08 02:24:03;;;;;;;56.47;25.80;;;1.10;99.90;;;;;;5012525;28;20029;-74
2021/01/08 02:26:29;;;;;;;45.00;22.23;;;1.10;99.90;;;;;;5012477;28;20022;-74
2021/01/08 02:28:55;;;;;;;60.28;24.75;;;1.10;99.90;;;;;;5018507;28;20037;-74
2021/01/08 02:31:21;;;;;;;50.47;22.92;;;1.10;99.90;;;;;;5032252;28;20033;-74
2021/01/08 02:33:48;;;;;;;49.15;23.77;;;1.20;99.90;;;;;;5032043;28;20541;-74
2021/01/08 02:36:14;;;;;;;48.55;22.70;;;1.20;99.90;;;;;;5031995;28;20021;-74
2021/01/08 02:38:40;;;;;;;50.88;23.70;;;1.20;99.90;;;;;;5029344;28;20059;-74
2021/01/08 02:41:08;;;;;;;48.75;23.73;;;1.20;99.90;;;;;;5012192;28;20037;-74
2021/01/08 02:43:35;;;;;;;52.28;25.02;;;1.20;99.90;;;;;;5010892;28;20030;-74
2021/01/08 02:46:02;;;;;;;49.20;24.85;;;1.20;99.90;;;;;;5010796;28;20109;-74
2021/01/08 02:48:29;;;;;;;52.50;23.85;;;1.20;99.90;;;;;;5012233;28;20101;-74
2021/01/08 02:50:54;;;;;;;48.40;24.45;;;1.10;99.90;;;;;;5011945;28;20061;-74
2021/01/08 02:53:23;;;;;;;45.38;22.83;;;1.20;99.90;;;;;;5010903;28;20065;-74
2021/01/08 02:55:55;;;;;;;54.25;24.88;;;1.20;99.90;;;;;;5011643;28;20033;-74
2021/01/08 02:58:22;;;;;;;43.70;23.02;;;1.10;99.90;;;;;;5013373;28;20057;-74
2021/01/08 03:00:50;;;;;;;49.47;24.30;;;1.10;99.90;;;;;;5030519;28;20180;-74
2021/01/08 03:03:16;;;;;;;50.35;23.83;;;1.10;99.90;;;;;;5030783;28;20108;-74
2021/01/08 03:05:42;;;;;;;50.80;24.55;;;1.00;99.90;;;;;;5030656;28;20022;-74
2021/01/08 03:08:08;;;;;;;49.13;23.17;;;1.10;99.90;;;;;;5031717;28;20496;-74
2021/01/08 03:10:34;;;;;;;53.05;24.05;;;1.00;99.90;;;;;;5014451;28;20041;-74
2021/01/08 03:13:03;;;;;;;52.90;23.90;;;1.00;99.90;;;;;;5011992;28;20030;-74
2021/01/08 03:15:29;;;;;;;49.50;22.45;;;0.90;99.90;;;;;;5010448;28;20065;-74
2021/01/08 03:17:55;;;;;;;50.75;23.48;;;1.00;99.90;;;;;;5011979;28;20026;-74
2021/01/08 03:20:21;;;;;;;49.67;23.40;;;1.00;99.90;;;;;;5022718;28;20148;-74
2021/01/08 03:22:47;;;;;;;52.05;22.58;;;1.00;99.90;;;;;;5035356;28;20510;-74
2021/01/08 03:25:13;;;;;;;49.20;24.48;;;1.00;99.90;;;;;;5034017;28;20029;-74
2021/01/08 03:27:38;;;;;;;42.53;21.38;;;1.00;99.90;;;;;;5034389;28;20026;-74
2021/01/08 03:30:05;;;;;;;52.15;23.48;;;1.00;99.90;;;;;;5019608;28;20030;-74
2021/01/08 03:32:32;;;;;;;48.53;23.48;;;1.00;99.90;;;;;;5014451;28;20022;-74
2021/01/08 03:34:57;;;;;;;48.03;22.00;;;1.00;99.90;;;;;;5015529;28;20022;-74
2021/01/08 03:37:23;;;;;;;52.80;23.33;;;1.00;99.90;;;;;;5014283;28;20045;-74
2021/01/08 03:39:48;;;;;;;47.95;21.65;;;1.00;99.90;;;;;;5026109;28;20140;-74
2021/01/08 03:42:14;;;;;;;47.40;23.00;;;1.00;99.90;;;;;;5035309;28;20032;-74
2021/01/08 03:44:40;;;;;;;40.47;21.92;;;0.90;99.90;;;;;;5034720;28;20041;-74
2021/01/08 03:47:05;;;;;;;41.35;20.08;;;1.00;99.90;;;;;;5033982;28;20021;-74
2021/01/08 03:49:37;;;;;;;39.25;19.63;;;0.90;99.90;;;;;;5033494;28;20018;-74
2021/01/08 03:52:04;;;;;;;50.67;21.13;;;0.90;99.90;;;;;;5031194;28;20026;-74
2021/01/08 03:54:30;;;;;;;40.72;19.98;;;0.90;99.90;;;;;;5014607;28;20457;-74
2021/01/08 03:56:55;;;;;;;45.97;21.60;;;0.90;99.90;;;;;;5014031;28;20038;-74
2021/01/08 03:59:21;;;;;;;43.55;20.60;;;0.90;99.90;;;;;;5023501;28;20044;-74
2021/01/08 04:01:46;;;;;;;42.08;20.50;;;0.90;99.90;;;;;;5033705;28;20033;-74
2021/01/08 04:04:12;;;;;;;46.85;19.67;;;0.90;99.90;;;;;;5032218;28;20025;-74
2021/01/08 04:06:37;;;;;;;41.70;20.58;;;0.90;99.90;;;;;;5033576;28;20097;-74
2021/01/08 04:09:03;;;;;;;47.28;22.23;;;0.90;99.90;;;;;;5029555;28;20120;-74
2021/01/08 04:11:28;;;;;;;42.67;19.25;;;0.90;99.90;;;;;;5012624;28;20053;-74
2021/01/08 04:13:54;;;;;;;41.63;19.90;;;0.80;99.90;;;;;;5013544;28;20042;-74
2021/01/08 04:16:19;;;;;;;46.42;21.30;;;0.80;99.90;;;;;;5013741;28;20041;-74
2021/01/08 04:18:45;;;;;;;42.70;20.52;;;0.80;99.90;;;;;;5012481;28;20029;-74
2021/01/08 04:21:10;;;;;;;56.55;21.70;;;0.80;99.90;;;;;;5050764;28;20421;-74
2021/01/08 04:23:38;;;;;;;48.05;21.35;;;0.80;99.90;;;;;;5051895;28;20116;-74
2021/01/08 04:26:06;;;;;;;39.17;20.42;;;0.80;99.90;;;;;;5051919;28;20024;-74
2021/01/08 04:28:32;;;;;;;41.25;20.60;;;0.80;99.90;;;;;;5047869;28;20052;-75
2021/01/08 04:30:57;;;;;;;43.22;20.95;;;0.80;99.90;;;;;;5033304;28;20079;-74
2021/01/08 04:33:23;;;;;;;44.15;20.77;;;0.80;99.90;;;;;;5032928;28;20064;-74
2021/01/08 04:35:49;;;;;;;45.17;20.77;;;0.80;99.90;;;;;;5031686;28;20025;-74
2021/01/08 04:38:14;;;;;;;46.40;21.40;;;0.80;99.90;;;;;;5033126;28;20036;-74
2021/01/08 04:40:40;;;;;;;47.50;20.25;;;0.80;99.90;;;;;;5013994;28;20029;-74
2021/01/08 04:43:05;;;;;;;45.13;21.50;;;0.80;99.90;;;;;;5013340;28;20068;-74
2021/01/08 04:45:31;;;;;;;45.55;20.15;;;0.80;99.90;;;;;;5013078;28;20509;-74
2021/01/08 04:47:58;;;;;;;45.15;21.77;;;0.80;99.90;;;;;;5013316;28;20022;-74
2021/01/08 04:50:25;;;;;;;39.50;19.02;;;0.80;99.90;;;;;;5012925;28;20438;-74
2021/01/08 04:52:52;;;;;;;40.72;21.45;;;0.80;99.90;;;;;;5013201;28;20105;-74
2021/01/08 04:55:19;;;;;;;43.65;19.65;;;0.90;99.90;;;;;;4992136;28;582797;-74
2021/01/08 04:57:47;;;;;;;45.50;21.13;;;0.90;99.90;;;;;;5012987;28;20026;-74
2021/01/08 05:00:14;;;;;;;40.03;18.38;;;0.90;99.90;;;;;;5030742;28;20089;-74
2021/01/08 05:02:40;;;;;;;36.05;18.95;;;0.90;99.90;;;;;;5032479;28;20473;-74
2021/01/08 05:05:07;;;;;;;46.85;19.85;;;0.90;99.90;;;;;;5033581;28;20490;-74
2021/01/08 05:07:32;;;;;;;45.22;19.80;;;0.90;99.90;;;;;;5033711;28;20025;-74
2021/01/08 05:10:01;;;;;;;42.97;19.73;;;0.90;99.90;;;;;;5021570;28;20034;-74
2021/01/08 05:12:43;;;;;;;43.65;19.63;;;0.90;99.90;;;;;;5013972;28;20018;-74
2021/01/08 05:15:13;;;;;;;43.28;18.95;;;0.90;99.90;;;;;;5012320;28;20065;-74
2021/01/08 05:17:40;;;;;;;40.10;18.70;;;0.90;99.90;;;;;;5013735;28;20030;-74
2021/01/08 05:20:07;;;;;;;42.60;19.48;;;0.90;99.90;;;;;;5023652;28;20074;-74
2021/01/08 05:22:33;;;;;;;43.53;18.50;;;0.90;99.90;;;;;;5033371;28;20053;-74
2021/01/08 05:25:08;;;;;;;44.55;20.33;;;0.90;99.90;;;;;;5033183;28;20080;-74
2021/01/08 05:27:34;;;;;;;39.17;19.45;;;0.90;99.90;;;;;;5033464;28;20099;-74
2021/01/08 05:30:35;;;;;;;41.88;18.55;;;0.90;99.90;;;;;;5018125;28;20494;-74
2021/01/08 05:33:05;;;;;;;33.10;17.10;;;0.90;99.90;;;;;;4972212;28;20109;-74
2021/01/08 05:35:33;;;;;;;37.05;18.88;;;0.90;99.90;;;;;;5005987;28;20116;-74
2021/01/08 05:38:05;;;;;;;38.53;18.05;;;0.90;99.90;;;;;;5013405;28;20021;-74
2021/01/08 05:40:31;;;;;;;40.58;19.25;;;0.90;99.90;;;;;;5028136;28;20494;-74
2021/01/08 05:42:59;;;;;;;32.92;19.27;;;0.90;99.90;;;;;;5032923;28;20124;-74
2021/01/08 05:45:26;;;;;;;35.45;16.65;;;0.90;99.90;;;;;;5032052;28;20061;-74
2021/01/08 05:47:53;;;;;;;44.80;19.10;;;1.00;99.90;;;;;;5033094;28;20022;-74
2021/01/08 05:50:21;;;;;;;38.72;21.17;;;0.90;99.90;;;;;;5031348;28;20053;-74
2021/01/08 05:52:51;;;;;;;41.30;21.20;;;0.90;99.90;;;;;;5032926;28;20470;-74
2021/01/08 05:55:17;;;;;;;57.95;27.75;;;1.00;99.90;;;;;;5032488;28;20033;-75
2021/01/08 05:57:43;;;;;;;86.47;39.40;;;0.90;99.90;;;;;;5032936;28;20031;-75
2021/01/08 06:00:09;;;;;;;128.93;52.85;;;1.00;99.90;;;;;;5016501;28;20026;-74
2021/01/08 06:02:35;;;;;;;253.80;104.30;;;0.90;99.90;;;;;;5012926;28;20038;-74
2021/01/08 06:05:04;;;;;;;145.43;58.83;;;0.90;99.90;;;;;;5012710;28;20014;-74
2021/01/08 06:07:37;;;;;;;128.35;53.40;;;0.90;99.90;;;;;;5012834;28;20546;-74
2021/01/08 06:10:04;;;;;;;229.73;92.68;;;0.90;99.90;;;;;;5024026;28;20083;-74
2021/01/08 06:12:39;;;;;;;135.82;49.38;;;0.90;99.90;;;;;;5032552;28;20429;-74
2021/01/08 06:15:08;;;;;;;137.55;49.47;;;0.90;99.90;;;;;;5030781;28;20037;-74
2021/01/08 06:17:36;;;;;;;148.02;51.88;;;1.00;99.90;;;;;;5032489;28;20047;-75
2021/01/08 06:20:04;;;;;;;124.30;41.28;;;1.00;99.90;;;;;;5022724;28;20065;-74
2021/01/08 06:22:39;;;;;;;308.33;84.30;;;1.00;99.90;;;;;;5012917;28;20084;-74
2021/01/08 06:25:10;;;;;;;252.82;81.95;;;1.00;99.90;;;;;;5012469;28;20030;-74
2021/01/08 06:27:36;;;;;;;102.05;35.63;;;1.00;99.90;;;;;;5027215;28;20021;-74
2021/01/08 06:30:07;;;;;;;70.82;27.92;;;1.00;99.90;;;;;;5032001;28;20099;-74
2021/01/08 06:32:33;;;;;;;87.90;31.95;;;1.00;99.90;;;;;;5032159;28;20041;-74
2021/01/08 06:35:08;;;;;;;86.97;34.85;;;0.90;99.90;;;;;;5031935;28;20029;-74
2021/01/08 06:37:41;;;;;;;121.97;44.47;;;0.90;99.90;;;;;;5019849;28;20050;-74
2021/01/08 06:40:09;;;;;;;85.75;34.33;;;0.90;99.90;;;;;;5011210;28;20064;-74
2021/01/08 06:42:45;;;;;;;254.65;73.30;;;0.90;99.90;;;;;;5012384;28;20372;-74
2021/01/08 06:45:16;;;;;;;157.98;52.50;;;0.90;99.90;;;;;;5026796;28;20401;-74
2021/01/08 06:47:44;;;;;;;163.38;52.20;;;0.90;99.90;;;;;;5032030;28;20029;-74
2021/01/08 06:50:19;;;;;;;293.67;97.72;;;0.90;99.90;;;;;;5031946;28;20025;-74
2021/01/08 06:52:49;;;;;;;78.07;31.40;;;0.90;99.90;;;;;;5030760;28;20037;-74
2021/01/08 06:55:18;;;;;;;193.35;54.67;;;0.90;99.90;;;;;;5029871;28;20030;-75
2021/01/08 06:57:48;;;;;;;130.82;42.30;;;0.90;99.90;;;;;;5031849;28;20509;-74
2021/01/08 07:00:19;;;;;;;245.77;75.25;;;0.90;99.90;;;;;;5030321;28;20053;-74
2021/01/08 07:02:45;;;;;;;83.78;31.85;;;0.90;99.90;;;;;;5030671;28;20120;-74
2021/01/08 07:05:16;;;;;;;111.20;35.47;;;0.90;99.90;;;;;;5020788;28;20038;-74
2021/01/08 07:07:42;;;;;;;85.75;30.63;;;0.90;99.90;;;;;;5017204;28;20402;-74
2021/01/08 07:10:08;;;;;;;148.50;48.08;;;0.90;99.90;;;;;;5031698;28;20021;-74
2021/01/08 07:12:34;;;;;;;125.40;41.25;;;0.90;99.90;;;;;;5030436;28;20022;-74
2021/01/08 07:15:00;;;;;;;137.20;47.00;;;0.90;99.90;;;;;;5016421;28;20079;-74
2021/01/08 07:17:33;;;;;;;91.68;38.78;;;0.90;99.90;;;;;;5010704;28;20037;-74
2021/01/08 07:20:04;;;;;;;112.72;47.70;;;1.00;99.90;;;;;;5011940;28;20115;-74
2021/01/08 07:22:40;;;;;;;70.75;33.65;;;1.00;99.90;;;;;;5011861;28;20026;-74
2021/01/08 07:25:11;;;;;;;92.68;43.20;;;1.00;99.90;;;;;;5011687;28;20409;-74
2021/01/08 07:27:39;;;;;;;68.13;33.33;;;1.00;99.90;;;;;;5011864;28;20437;-74
2021/01/08 07:30:08;;;;;;;78.60;37.83;;;0.90;99.90;;;;;;5012134;28;20546;-74
2021/01/08 07:32:37;;;;;;;131.57;44.58;;;0.90;99.90;;;;;;5011828;28;20054;-74
2021/01/08 07:35:27;;;;;;;169.15;58.65;;;0.90;99.90;;;;;;5011451;28;20402;-74
2021/01/08 07:38:07;;;;;;;51.13;24.75;;;1.00;99.90;;;;;;5011652;28;20092;-74
2021/01/08 07:40:38;;;;;;;69.75;34.13;;;0.90;99.90;;;;;;5030442;28;20622;-74
2021/01/08 07:43:08;;;;;;;39.30;21.45;;;1.00;99.90;;;;;;5030203;28;20034;-74
2021/01/08 07:45:53;;;;;;;43.58;22.42;;;1.00;99.90;;;;;;5030968;28;20510;-74
2021/01/08 07:48:19;;;;;;;60.70;25.30;;;0.90;99.90;;;;;;5030135;28;20025;-74
2021/01/08 07:50:57;;;;;;;47.42;23.55;;;0.90;99.90;;;;;;5012637;28;20026;-74
2021/01/08 07:53:41;;;;;;;47.90;24.80;;;0.90;99.90;;;;;;5011671;28;20402;-74
2021/01/08 07:56:26;;;;;;;53.95;20.98;;;0.90;99.90;;;;;;5011469;28;20037;-74
2021/01/08 07:58:54;;;;;;;39.63;20.60;;;0.90;99.90;;;;;;5016869;28;20100;-74
2021/01/08 08:01:20;;;;;;;42.95;21.55;;;0.90;99.90;;;;;;5028804;28;20047;-74
2021/01/08 08:03:56;;;;;;;45.42;22.85;;;0.90;99.90;;;;;;5029302;28;20497;-74
2021/01/08 08:06:22;;;;;;;45.08;21.48;;;0.90;99.90;;;;;;5030931;28;20049;-74
2021/01/08 08:08:49;;;;;;;43.70;21.98;;;0.90;99.90;;;;;;5032337;28;20097;-74
2021/01/08 08:11:16;;;;;;;38.58;19.90;;;0.90;99.90;;;;;;5015048;28;20018;-74
2021/01/08 08:13:44;;;;;;;37.70;20.15;;;0.90;99.90;;;;;;5014795;28;20049;-75
2021/01/08 08:16:10;;;;;;;42.25;20.48;;;0.90;99.90;;;;;;5013412;28;20571;-74
2021/01/08 08:18:49;;;;;;;42.35;19.58;;;0.90;99.90;;;;;;5013545;28;20030;-74
2021/01/08 08:21:15;;;;;;;40.15;19.88;;;1.00;99.90;;;;;;5033830;28;20041;-74
2021/01/08 08:23:40;;;;;;;34.53;18.52;;;1.00;99.90;;;;;;5034370;28;20072;-74
2021/01/08 08:26:06;;;;;;;49.25;19.85;;;1.00;99.90;;;;;;5034308;28;20026;-74
2021/01/08 08:28:31;;;;;;;37.33;19.00;;;1.00;99.90;;;;;;5031642;28;20018;-74
2021/01/08 08:30:57;;;;;;;44.95;19.48;;;1.00;99.90;;;;;;5014613;28;20026;-74
2021/01/08 08:33:23;;;;;;;47.65;23.90;;;0.90;99.90;;;;;;5029461;28;20029;-74
2021/01/08 08:35:50;;;;;;;45.58;22.17;;;0.90;99.90;;;;;;5034186;28;20132;-74
2021/01/08 08:38:15;;;;;;;49.08;25.13;;;0.90;99.90;;;;;;5034368;28;20108;-74
2021/01/08 08:40:41;;;;;;;36.30;19.65;;;0.90;99.90;;;;;;5032976;28;20108;-74
2021/01/08 08:43:08;;;;;;;34.53;18.05;;;0.90;99.90;;;;;;5023204;28;20500;-74
2021/01/08 08:45:35;;;;;;;39.60;18.38;;;0.90;99.90;;;;;;5012808;28;20121;-74
2021/01/08 08:48:05;;;;;;;43.20;19.13;;;0.90;99.90;;;;;;5014115;28;20057;-74
2021/01/08 08:50:40;;;;;;;36.92;19.20;;;0.90;99.90;;;;;;5014340;28;20026;-74
2021/01/08 08:53:13;;;;;;;45.40;20.67;;;0.90;99.90;;;;;;5021880;28;20415;-74
2021/01/08 08:55:40;;;;;;;45.33;21.77;;;1.00;99.90;;;;;;5033669;28;20040;-74
2021/01/08 08:58:10;;;;;;;44.03;21.15;;;0.90;99.90;;;;;;5033981;28;20037;-74
2021/01/08 09:00:38;;;;;;;49.53;21.42;;;0.80;99.90;;;;;;5014203;28;20053;-74
2021/01/08 09:03:24;;;;;;;41.28;20.20;;;0.80;99.90;;;;;;5017170;28;20112;-74
2021/01/08 09:05:53;;;;;;;36.30;18.73;;;0.90;99.90;;;;;;5033476;28;20100;-75
2021/01/08 09:08:30;;;;;;;38.78;20.92;;;0.90;99.90;;;;;;5032505;28;20025;-74
2021/01/08 09:11:03;;;;;;;34.42;18.73;;;0.90;99.90;;;;;;5033578;28;20021;-74
2021/01/08 09:13:57;;;;;;;37.35;18.33;;;0.90;99.90;;;;;;5028248;28;20034;-74
2021/01/08 09:16:36;;;;;;;32.40;17.65;;;0.90;99.90;;;;;;5013708;28;20045;-74
2021/01/08 09:19:16;;;;;;;34.17;18.50;;;0.90;99.90;;;;;;5042308;28;20301;-74
2021/01/08 09:21:48;;;;;;;36.58;18.65;;;0.90;99.90;;;;;;5033571;28;20021;-75
2021/01/08 09:24:18;;;;;;;36.95;18.35;;;0.90;99.90;;;;;;5018741;28;20056;-74
2021/01/08 09:26:44;;;;;;;34.17;18.20;;;1.00;99.90;;;;;;5013585;28;20018;-74
2021/01/08 09:29:10;;;;;;;36.35;18.50;;;1.00;99.90;;;;;;5029014;28;20101;-74
2021/01/08 09:31:43;;;;;;;38.60;18.05;;;1.00;99.90;;;;;;5013025;28;20026;-74
2021/01/08 09:34:18;;;;;;;35.83;18.63;;;1.00;99.90;;;;;;5013392;28;20030;-74
2021/01/08 09:36:47;;;;;;;38.42;18.45;;;1.00;99.90;;;;;;5013298;28;20034;-75
2021/01/08 09:39:13;;;;;;;36.67;18.48;;;0.90;99.90;;;;;;5014518;28;20041;-75
2021/01/08 09:41:43;;;;;;;33.72;18.60;;;1.00;99.90;;;;;;5013324;28;20038;-74
2021/01/08 09:44:12;;;;;;;39.50;18.95;;;1.00;99.90;;;;;;5023075;28;20061;-74
2021/01/08 09:46:59;;;;;;;43.10;18.77;;;1.00;99.90;;;;;;5032867;28;20022;-75
2021/01/08 09:49:25;;;;;;;34.70;18.40;;;1.10;99.90;;;;;;5031664;28;20108;-74
2021/01/08 09:52:01;;;;;;;32.78;16.25;;;1.10;99.90;;;;;;5023966;28;20025;-75
2021/01/08 09:54:49;;;;;;;36.90;17.77;;;1.10;99.90;;;;;;5012672;28;20567;-75
2021/01/08 09:57:28;;;;;;;34.80;18.45;;;1.10;99.90;;;;;;5011898;28;20056;-74
2021/01/08 09:59:54;;;;;;;39.83;19.65;;;1.10;99.90;;;;;;5011685;28;20036;-74
2021/01/08 10:02:56;;;;;;;33.17;18.00;;;1.10;99.90;;;;;;5013944;28;20502;-74
2021/01/08 10:05:22;;;;;;;37.72;18.02;;;1.20;99.90;;;;;;4955148;28;20042;-74
2021/01/08 10:07:48;;;;;;;30.25;16.15;;;1.20;99.90;;;;;;5013277;28;20037;-74
2021/01/08 10:10:26;;;;;;;32.95;17.38;;;1.20;99.90;;;;;;5032491;28;20052;-75
2021/01/08 10:12:52;;;;;;;32.67;17.60;;;1.20;99.90;;;;;;5016876;28;20029;-75
2021/01/08 10:15:20;;;;;;;30.60;16.42;;;1.20;99.90;;;;;;5011169;28;20026;-75
2021/01/08 10:17:50;;;;;;;30.02;16.67;;;1.30;99.90;;;;;;5011492;28;20037;-76
2021/01/08 10:20:17;;;;;;;106.68;32.15;;;1.30;99.90;;;;;;5012649;28;20021;-77
2021/01/08 10:22:53;;;;;;;46.78;24.23;;;1.30;99.90;;;;;;5012385;28;20037;-76
2021/01/08 10:25:27;;;;;;;29.98;16.27;;;1.30;99.90;;;;;;5011006;28;20112;-76
2021/01/08 10:27:53;;;;;;;30.50;16.63;;;1.30;99.90;;;;;;5012485;28;20030;-75
2021/01/08 10:30:20;;;;;;;33.90;16.20;;;1.30;99.90;;;;;;5010900;28;20022;-75
2021/01/08 10:32:48;;;;;;;33.35;16.35;;;1.40;99.90;;;;;;5025199;28;20386;-76
2021/01/08 10:35:17;;;;;;;25.77;14.80;;;1.40;99.90;;;;;;5032026;28;20095;-77
2021/01/08 10:37:43;;;;;;;26.80;14.88;;;1.50;99.90;;;;;;5031825;28;20042;-75
2021/01/08 10:40:09;;;;;;;27.35;14.57;;;1.50;99.90;;;;;;5032088;28;20025;-76
2021/01/08 10:42:34;;;;;;;23.80;13.40;;;1.40;99.90;;;;;;5023019;28;20494;-76
2021/01/08 10:45:00;;;;;;;26.63;13.35;;;1.40;99.90;;;;;;5010827;28;20037;-76
2021/01/08 10:47:26;;;;;;;27.95;13.98;;;1.40;99.90;;;;;;5012211;28;20540;-75
2021/01/08 10:49:53;;;;;;;23.45;13.48;;;1.40;99.90;;;;;;5012315;28;20022;-75
2021/01/08 10:52:19;;;;;;;28.63;14.23;;;1.40;99.90;;;;;;5023118;28;20076;-75
2021/01/08 10:54:44;;;;;;;24.50;14.75;;;1.40;99.90;;;;;;5031388;28;20045;-75
2021/01/08 10:57:10;;;;;;;28.33;13.73;;;1.40;99.90;;;;;;5031721;28;20036;-75
2021/01/08 10:59:36;;;;;;;23.27;13.15;;;1.50;99.90;;;;;;5031830;28;20029;-75
2021/01/08 11:02:01;;;;;;;25.13;13.48;;;1.50;99.90;;;;;;5038538;28;20037;-75
2021/01/08 11:04:27;;;;;;;23.95;13.23;;;1.50;99.90;;;;;;5051634;28;20033;-75
2021/01/08 11:06:56;;;;;;;22.48;12.40;;;1.50;99.90;;;;;;5051370;28;20029;-75
2021/01/08 11:09:22;;;;;;;27.67;13.27;;;1.40;99.90;;;;;;5051572;28;20025;-75
2021/01/08 11:11:48;;;;;;;27.80;12.93;;;1.40;99.90;;;;;;5047968;28;20030;-75
2021/01/08 11:14:13;;;;;;;24.25;12.27;;;1.40;99.90;;;;;;5029660;28;20375;-75
2021/01/08 11:16:39;;;;;;;25.63;14.88;;;1.40;99.90;;;;;;5031673;28;20363;-75
2021/01/08 11:19:04;;;;;;;26.30;12.70;;;1.30;99.90;;;;;;5031204;28;20375;-75
2021/01/08 11:21:30;;;;;;;23.58;13.02;;;1.40;99.90;;;;;;5025832;28;20613;-75
2021/01/08 11:23:55;;;;;;;25.85;13.02;;;1.40;99.90;;;;;;5010343;28;20033;-75
2021/01/08 11:26:25;;;;;;;24.20;12.15;;;1.50;99.90;;;;;;5011583;28;20110;-75
2021/01/08 11:28:51;;;;;;;24.63;12.73;;;1.40;99.90;;;;;;5011838;28;20026;-76
2021/01/08 11:31:17;;;;;;;24.48;12.27;;;1.50;99.90;;;;;;5012448;28;20072;-75
2021/01/08 11:33:45;;;;;;;23.20;12.05;;;1.50;99.90;;;;;;5030162;28;20025;-75
2021/01/08 11:36:11;;;;;;;19.98;11.82;;;1.50;99.90;;;;;;5030963;28;20508;-75
2021/01/08 11:38:37;;;;;;;22.10;13.15;;;1.50;99.90;;;;;;5031497;28;20552;-75
2021/01/08 11:41:02;;;;;;;19.20;11.18;;;1.50;99.90;;;;;;5030136;28;20121;-75
2021/01/08 11:43:28;;;;;;;17.40;10.68;;;1.60;99.90;;;;;;5017125;28;20026;-75
2021/01/08 11:45:53;;;;;;;20.50;11.75;;;1.70;99.90;;;;;;5014112;28;20206;-76
2021/01/08 11:48:19;;;;;;;17.10;10.95;;;1.70;99.90;;;;;;5015486;28;20026;-76
2021/01/08 11:50:44;;;;;;;17.83;10.95;;;1.70;99.90;;;;;;5014229;28;20037;-76
2021/01/08 11:53:10;;;;;;;17.95;10.82;;;1.60;99.90;;;;;;5032986;28;20034;-76
2021/01/08 11:55:36;;;;;;;17.77;11.20;;;1.70;99.90;;;;;;5034961;28;20619;-76
2021/01/08 11:58:02;;;;;;;22.42;11.07;;;1.70;99.90;;;;;;5035131;28;20029;-74
2021/01/08 12:00:27;;;;;;;19.60;11.45;;;1.70;99.90;;;;;;5034877;28;20068;-75
2021/01/08 12:02:53;;;;;;;18.92;9.93;;;1.70;99.90;;;;;;5020769;28;20026;-74
2021/01/08 12:05:19;;;;;;;22.20;10.85;;;1.70;99.90;;;;;;5014828;28;20605;-74
2021/01/08 12:07:44;;;;;;;15.15;9.55;;;1.70;99.90;;;;;;5015078;28;20390;-74
2021/01/08 12:10:10;;;;;;;16.65;10.40;;;1.70;99.90;;;;;;5014844;28;20483;-75
2021/01/08 12:12:36;;;;;;;19.70;11.00;;;1.80;99.90;;;;;;5022265;28;20050;-75
2021/01/08 12:15:03;;;;;;;17.80;10.77;;;1.80;99.90;;;;;;5034428;28;20070;-75
2021/01/08 12:17:29;;;;;;;29.48;14.23;;;1.90;99.90;;;;;;5034522;28;20121;-74
2021/01/08 12:19:54;;;;;;;23.20;11.73;;;1.90;99.90;;;;;;5034538;28;20100;-76
2021/01/08 12:22:20;;;;;;;16.17;10.13;;;1.90;99.90;;;;;;5020710;28;20120;-76
2021/01/08 12:24:45;;;;;;;43.80;18.58;;;2.00;99.90;;;;;;5028159;28;20030;-76
2021/01/08 12:27:11;;;;;;;41.72;18.30;;;1.90;99.90;;;;;;5034279;28;20029;-76
2021/01/08 12:29:36;;;;;;;33.40;14.77;;;1.90;99.90;;;;;;5034249;28;20043;-76
2021/01/08 12:32:04;;;;;;;56.38;20.65;;;1.90;99.90;;;;;;5033791;28;20098;-76
2021/01/08 12:34:29;;;;;;;50.22;19.88;;;1.90;99.90;;;;;;5031926;28;20026;-76
2021/01/08 12:36:56;;;;;;;96.60;32.78;;;1.80;99.90;;;;;;5032667;28;20033;-76
2021/01/08 12:39:22;;;;;;;59.55;22.58;;;1.80;99.90;;;;;;5033993;28;20033;-75
2021/01/08 12:41:47;;;;;;;40.05;17.20;;;1.80;99.90;;;;;;5030470;28;20030;-76